Vorogovo, Russia
Current Conditions -  °F | °C
As of 12:00 AM on Friday 19 Dec 2014 (Local Time) from UNKL Reporting Station
Overcast Overcast  
Wind Chill:   Ceiling: 8300
Heat Index: 12°   Visibility: 6mi
Dew Point:   Wind: 4mph
Humidity: 79%   Direction: NA
Pressure: 30.5"   Gusts: NA
Location:  61.03°N, 89.63°E
Report Text: UNKL 181700Z VRB02MPS 9999 SCT030CB OVC083 M11/M14 Q1033 NOSIGRMK QFE748 29////65
Loading
Personal Weather Stations






























Interactive Weather Map New forecast layout! Learn more

10-Day Weather Forecast

Advertisements
Track Severe Weather on mobile